Macon, Nebraska
Current Conditions -  °F | °C
As of 6:15 AM on Friday 28 Nov 2014 (Local Time) from KHDE Reporting Station
Clear Clear  
Wind Chill: 27°   Ceiling: Unl
Heat Index: 33°   Visibility: 10mi
Dew Point: 25°   Wind: 7mph
Humidity: 71%   Direction: 270°W
Pressure: 29.87"   Gusts: NA
Location:  40.1734°N, 98.8989°W
Report Text: KHDE 281215Z AUTO 27006KT 10SM CLR 01/M04 A2987 RMK AO2 T00071041
Loading
Personal Weather Stations






























Interactive Weather Map New forecast layout! Learn more

10-Day Weather Forecast

Advertisements
Track Severe Weather on mobile